Time;durP1;ratioP1;P1;durP2;ratioP2;P2;SDS_P1;SDS_P2;PMS_P1;PMS_P2;Temp;Humidity;BMP_temperature;BMP_pressure;BME280_temperature;BME280_humidity;BME280_pressure;Samples;Min_cycle;Max_cycle;Signal;HPM_P1;HPM_P2
2022/10/24 00:02:04;;;;;;;;;;;;;;;17.63;49.97;101455.38;4958355;28;1129;-53
2022/10/24 00:04:29;;;;;;;;;;;;;;;17.20;49.30;101457.22;4958178;28;1133;-53
2022/10/24 00:06:55;;;;;;;;;;;;;;;17.00;48.39;101444.09;4954484;28;1181;-54
2022/10/24 00:09:20;;;;;;;;;;;;;;;16.84;47.36;101434.88;4952158;29;2389;-53
2022/10/24 00:11:45;;;;;;;;;;;;;;;17.79;49.26;101437.88;4958469;28;1118;-53
2022/10/24 00:14:11;;;;;;;;;;;;;;;17.13;49.34;101421.72;4958154;28;1173;-53
2022/10/24 00:16:36;;;;;;;;;;;;;;;17.00;47.95;101422.97;4958370;28;1918;-51
2022/10/24 00:19:02;;;;;;;;;;;;;;;16.75;47.71;101429.81;4942636;28;1212;-51
2022/10/24 00:21:27;;;;;;;;;;;;;;;17.91;48.84;101425.88;4952001;28;944;-54
2022/10/24 00:23:53;;;;;;;;;;;;;;;17.21;49.13;101434.97;4957808;28;1309;-54
2022/10/24 00:26:18;;;;;;;;;;;;;;;16.96;48.54;101431.97;4957694;28;1212;-55
2022/10/24 00:28:44;;;;;;;;;;;;;;;17.80;48.91;101424.94;4957650;28;1145;-55
2022/10/24 00:31:13;;;;;;;;;;;;;;;17.14;49.07;101428.88;4958022;28;1200;-54
2022/10/24 00:33:38;;;;;;;;;;;;;;;17.00;48.75;101425.72;4957395;28;904;-54
2022/10/24 00:36:04;;;;;;;;;;;;;;;17.53;48.89;101431.38;4957626;28;1988;-53
2022/10/24 00:38:29;;;;;;;;;;;;;;;17.20;48.23;101432.50;4958006;28;1118;-54
2022/10/24 00:40:55;;;;;;;;;;;;;;;16.91;47.75;101432.75;4957849;28;2635;-52
2022/10/24 00:43:21;;;;;;;;;;;;;;;17.39;48.29;101430.16;4958076;28;1193;-53
2022/10/24 00:45:56;;;;;;;;;;;;;;;17.22;48.36;101433.03;4966962;28;947;-52
2022/10/24 00:48:31;;;;;;;;;;;;;;;16.98;47.54;101436.13;4958850;28;1171;-53
2022/10/24 00:50:58;;;;;;;;;;;;;;;18.03;47.75;101429.22;4989101;28;1172;-55
2022/10/24 00:53:24;;;;;;;;;;;;;;;17.28;48.67;101430.06;4955870;29;1338;-56
2022/10/24 00:55:51;;;;;;;;;;;;;;;16.96;47.84;101432.81;4978508;28;1954;-51
2022/10/24 00:58:17;;;;;;;;;;;;;;;17.70;48.56;101425.72;4973588;28;912;-54
2022/10/24 01:00:42;;;;;;;;;;;;;;;17.10;48.37;101431.28;4980244;28;1184;-54
2022/10/24 01:03:09;;;;;;;;;;;;;;;18.75;47.81;101434.16;4952795;28;1063;-55
2022/10/24 01:05:55;;;;;;;;;;;;;;;14.63;57.71;101430.50;4957705;28;1204;-55
2022/10/24 01:08:25;;;;;;;;;;;;;;;16.36;50.38;101431.88;4944633;28;1197;-55
2022/10/24 01:10:51;;;;;;;;;;;;;;;17.39;50.28;101430.16;4961214;28;2583;-54
2022/10/24 01:13:20;;;;;;;;;;;;;;;17.48;50.28;101441.50;4961230;28;1102;-55
2022/10/24 01:15:54;;;;;;;;;;;;;;;18.73;49.17;101439.97;4978545;28;1910;-54
2022/10/24 01:18:52;;;;;;;;;;;;;;;15.72;56.81;101436.75;4961240;28;1034;-53
2022/10/24 01:21:23;;;;;;;;;;;;;;;16.71;50.71;101431.44;4949030;29;1119;-56
2022/10/24 01:23:48;;;;;;;;;;;;;;;16.75;49.16;101429.81;4948119;28;1078;-55
2022/10/24 01:26:23;;;;;;;;;;;;;;;16.90;49.63;101436.59;4960012;29;1185;-55
2022/10/24 01:29:05;;;;;;;;;;;;;;;17.32;50.70;101437.78;4949126;28;1220;-55
2022/10/24 01:31:34;;;;;;;;;;;;;;;16.76;49.66;101437.00;4972828;28;1097;-54
2022/10/24 01:34:06;;;;;;;;;;;;;;;16.76;48.62;101437.00;4973895;28;898;-56
2022/10/24 01:36:49;;;;;;;;;;;;;;;16.98;49.01;101429.81;4960320;29;1915;-55
2022/10/24 01:39:15;;;;;;;;;;;;;;;17.48;49.60;101427.75;4980835;28;2402;-56
2022/10/24 01:41:41;;;;;;;;;;;;;;;17.02;49.29;101429.03;4960795;28;1196;-55
2022/10/24 01:44:15;;;;;;;;;;;;;;;16.86;48.34;101421.72;4979790;28;1176;-53
2022/10/24 01:46:42;;;;;;;;;;;;;;;16.69;47.70;101428.13;4960214;29;1223;-55
2022/10/24 01:49:15;;;;;;;;;;;;;;;17.40;48.89;101426.31;4980848;28;1120;-54
2022/10/24 01:51:40;;;;;;;;;;;;;;;16.82;48.50;101437.88;4958714;28;1130;-55
2022/10/24 01:54:06;;;;;;;;;;;;;;;18.52;48.99;101440.97;4960804;28;1200;-55
2022/10/24 01:56:32;;;;;;;;;;;;;;;15.42;56.73;101439.00;4977760;28;1918;-55
2022/10/24 01:59:04;;;;;;;;;;;;;;;15.88;52.98;101442.50;4960144;28;1137;-54
2022/10/24 02:01:29;;;;;;;;;;;;;;;16.74;50.93;101438.34;4960406;28;1181;-55
2022/10/24 02:03:56;;;;;;;;;;;;;;;17.23;50.83;101427.28;4958793;29;1109;-56
2022/10/24 02:06:22;;;;;;;;;;;;;;;16.86;50.07;101441.75;4978497;28;1136;-50
2022/10/24 02:08:50;;;;;;;;;;;;;;;17.68;50.43;101432.56;4986988;28;1531;-52
2022/10/24 02:11:16;;;;;;;;;;;;;;;17.06;50.16;101441.16;4955085;29;2698;-52
2022/10/24 02:13:44;;;;;;;;;;;;;;;16.85;48.77;101442.84;4960099;28;1109;-53
2022/10/24 02:16:10;;;;;;;;;;;;;;;17.26;49.57;101439.66;4946882;29;1910;-54
2022/10/24 02:18:35;;;;;;;;;;;;;;;17.07;49.53;101450.25;4959712;28;1141;-54
2022/10/24 02:21:11;;;;;;;;;;;;;;;16.79;48.79;101440.28;4958593;28;1188;-53
2022/10/24 02:23:51;;;;;;;;;;;;;;;16.65;47.63;101439.88;4958581;29;1093;-51
2022/10/24 02:26:21;;;;;;;;;;;;;;;16.48;47.17;101442.69;4977656;28;1168;-53
2022/10/24 02:28:47;;;;;;;;;;;;;;;17.49;47.81;101448.66;4979627;28;1172;-55
2022/10/24 02:31:20;;;;;;;;;;;;;;;16.88;48.09;101439.59;4985152;28;1141;-52
2022/10/24 02:33:46;;;;;;;;;;;;;;;16.53;47.57;101440.84;4981359;28;1166;-51
2022/10/24 02:36:12;;;;;;;;;;;;;;;17.67;48.35;101448.25;4959949;28;1961;-53
2022/10/24 02:38:38;;;;;;;;;;;;;;;17.00;48.39;101438.59;4982054;28;1109;-52
2022/10/24 02:41:04;;;;;;;;;;;;;;;17.99;48.34;101444.59;4974836;28;2570;-53
2022/10/24 02:43:30;;;;;;;;;;;;;;;17.70;49.12;101441.41;4959596;28;1121;-52
2022/10/24 02:45:55;;;;;;;;;;;;;;;17.13;49.09;101456.63;4959421;28;1468;-54
2022/10/24 02:48:22;;;;;;;;;;;;;;;16.96;48.08;101453.94;4959528;28;1220;-54
2022/10/24 02:50:47;;;;;;;;;;;;;;;16.74;47.31;101452.88;4959601;28;1109;-57
2022/10/24 02:53:13;;;;;;;;;;;;;;;16.67;46.87;101452.25;4959386;28;1173;-57
2022/10/24 02:55:39;;;;;;;;;;;;;;;17.56;48.48;101452.03;4981354;28;1985;-56
2022/10/24 02:58:04;;;;;;;;;;;;;;;16.96;48.54;101459.44;4984040;28;1128;-57
2022/10/24 03:00:29;;;;;;;;;;;;;;;17.69;48.36;101457.06;4947003;28;1157;-56
2022/10/24 03:02:55;;;;;;;;;;;;;;;17.32;48.97;101460.63;4959430;28;1118;-55
2022/10/24 03:05:20;;;;;;;;;;;;;;;16.91;48.43;101457.47;4959213;28;1180;-55
2022/10/24 03:07:46;;;;;;;;;;;;;;;16.87;47.31;101456.31;4948620;28;1078;-55
2022/10/24 03:10:11;;;;;;;;;;;;;;;17.70;47.98;101453.22;4955938;29;2361;-54
2022/10/24 03:12:37;;;;;;;;;;;;;;;17.01;48.46;101445.75;4958762;28;1244;-55
2022/10/24 03:15:02;;;;;;;;;;;;;;;16.79;47.69;101438.41;4958739;28;1918;-55
2022/10/24 03:17:28;;;;;;;;;;;;;;;17.71;47.71;101443.88;4945709;28;1114;-56
2022/10/24 03:19:53;;;;;;;;;;;;;;;17.00;48.11;101444.94;4958956;28;1228;-53
2022/10/24 03:22:19;;;;;;;;;;;;;;;17.93;48.32;101446.50;4958408;28;1190;-53
2022/10/24 03:24:44;;;;;;;;;;;;;;;17.89;48.98;101433.50;4958941;28;1224;-54
2022/10/24 03:27:10;;;;;;;;;;;;;;;17.23;48.96;101442.94;4959340;28;1216;-56
2022/10/24 03:29:35;;;;;;;;;;;;;;;17.01;48.15;101440.28;4959083;28;1181;-55
2022/10/24 03:32:01;;;;;;;;;;;;;;;17.80;48.53;101435.94;4957878;28;1106;-55
2022/10/24 03:34:26;;;;;;;;;;;;;;;17.52;49.36;101434.41;4955947;28;1149;-50
2022/10/24 03:36:51;;;;;;;;;;;;;;;17.16;48.40;101434.91;4939220;28;1969;-54
2022/10/24 03:39:17;;;;;;;;;;;;;;;17.99;48.63;101433.59;4953320;29;2368;-54
2022/10/24 03:41:42;;;;;;;;;;;;;;;17.31;48.65;101425.97;4958712;28;1185;-54
2022/10/24 03:44:08;;;;;;;;;;;;;;;17.05;48.01;101427.66;4958401;28;1094;-52
2022/10/24 03:46:33;;;;;;;;;;;;;;;16.94;46.84;101424.00;4958287;28;1216;-49
2022/10/24 03:48:58;;;;;;;;;;;;;;;17.93;48.00;101423.66;4958509;28;1109;-51
2022/10/24 03:51:24;;;;;;;;;;;;;;;17.19;48.54;101430.81;4958378;28;1122;-49
2022/10/24 03:53:49;;;;;;;;;;;;;;;16.96;47.51;101441.06;4958487;28;1130;-53
2022/10/24 03:56:15;;;;;;;;;;;;;;;16.74;47.15;101441.06;4958159;28;1902;-57
2022/10/24 03:58:40;;;;;;;;;;;;;;;17.64;47.92;101435.00;4958218;28;963;-55
2022/10/24 04:01:08;;;;;;;;;;;;;;;17.02;47.82;101431.75;4958096;28;1153;-56
2022/10/24 04:03:33;;;;;;;;;;;;;;;17.56;48.30;101430.84;4944722;28;1200;-54
2022/10/24 04:05:59;;;;;;;;;;;;;;;17.45;48.73;101429.13;4958025;28;1138;-54
2022/10/24 04:08:24;;;;;;;;;;;;;;;17.04;48.10;101431.50;4958153;28;1149;-55
2022/10/24 04:10:50;;;;;;;;;;;;;;;16.86;47.57;101432.69;4957531;28;2329;-52
2022/10/24 04:13:15;;;;;;;;;;;;;;;16.96;47.69;101431.97;4958266;28;1209;-54
2022/10/24 04:15:41;;;;;;;;;;;;;;;17.33;48.39;101421.03;4958315;28;1906;-53
2022/10/24 04:18:07;;;;;;;;;;;;;;;16.98;47.89;101424.31;4958025;28;1165;-53
2022/10/24 04:20:32;;;;;;;;;;;;;;;16.83;47.32;101411.22;4958199;28;1154;-56
2022/10/24 04:22:58;;;;;;;;;;;;;;;17.79;47.65;101402.13;4957645;28;987;-54
2022/10/24 04:25:23;;;;;;;;;;;;;;;16.95;48.49;101406.44;4946685;28;1213;-54
2022/10/24 04:27:49;;;;;;;;;;;;;;;16.85;47.52;101415.38;4956147;28;1231;-56
2022/10/24 04:30:14;;;;;;;;;;;;;;;17.56;48.05;101408.03;4957825;28;1177;-55
2022/10/24 04:32:40;;;;;;;;;;;;;;;17.06;48.18;101416.41;4957640;28;1180;-55
2022/10/24 04:35:05;;;;;;;;;;;;;;;16.87;47.49;101415.09;4949934;28;1979;-56
2022/10/24 04:37:31;;;;;;;;;;;;;;;17.03;47.66;101421.63;4951822;28;1117;-50
2022/10/24 04:39:56;;;;;;;;;;;;;;;17.44;48.08;101424.69;4957812;28;2328;-49
2022/10/24 04:42:22;;;;;;;;;;;;;;;16.99;47.84;101432.28;4958006;28;1129;-50
2022/10/24 04:44:47;;;;;;;;;;;;;;;18.47;47.37;101437.13;4958104;28;1089;-48
2022/10/24 04:47:13;;;;;;;;;;;;;;;17.34;48.93;101433.69;4953761;28;968;-49
2022/10/24 04:49:38;;;;;;;;;;;;;;;17.15;47.93;101436.00;4961884;28;1110;-48
2022/10/24 04:52:04;;;;;;;;;;;;;;;16.91;47.42;101441.00;4961786;28;1125;-47
2022/10/24 04:54:29;;;;;;;;;;;;;;;17.05;47.42;101442.22;4961624;28;1114;-51
2022/10/24 04:56:54;;;;;;;;;;;;;;;17.30;48.25;101451.81;4961163;28;1985;-53
2022/10/24 04:59:20;;;;;;;;;;;;;;;16.97;47.64;101453.72;4961356;28;857;-46
2022/10/24 05:01:45;;;;;;;;;;;;;;;16.75;47.22;101450.97;4961221;28;1177;-50
2022/10/24 05:04:11;;;;;;;;;;;;;;;17.67;47.39;101458.41;4961564;28;1118;-49
2022/10/24 05:06:37;;;;;;;;;;;;;;;17.02;47.74;101469.41;4961440;28;1169;-54
2022/10/24 05:09:02;;;;;;;;;;;;;;;18.11;47.54;101458.97;4954947;28;2380;-60
2022/10/24 05:11:28;;;;;;;;;;;;;;;17.89;48.71;101464.63;4960925;28;1205;-63
2022/10/24 05:13:53;;;;;;;;;;;;;;;17.31;48.70;101466.41;4961594;29;1161;-63
2022/10/24 05:16:19;;;;;;;;;;;;;;;17.11;48.15;101459.63;4961320;28;1910;-64
2022/10/24 05:18:44;;;;;;;;;;;;;;;16.96;47.23;101452.06;4960957;28;1156;-64
2022/10/24 05:21:09;;;;;;;;;;;;;;;17.70;47.87;101463.41;4947411;28;1193;-64
2022/10/24 05:23:35;;;;;;;;;;;;;;;17.33;48.86;101458.69;4960759;28;1226;-62
2022/10/24 05:26:00;;;;;;;;;;;;;;;17.05;48.15;101449.66;4961043;28;1189;-63
2022/10/24 05:28:26;;;;;;;;;;;;;;;17.92;48.56;101452.28;4961392;28;1168;-65
2022/10/24 05:30:51;;;;;;;;;;;;;;;17.54;48.87;101446.75;4960918;28;1181;-62
2022/10/24 05:33:17;;;;;;;;;;;;;;;17.17;48.32;101449.50;4961305;28;1141;-66
2022/10/24 05:35:42;;;;;;;;;;;;;;;17.93;47.31;101459.44;4960428;28;1913;-63
2022/10/24 05:38:07;;;;;;;;;;;;;;;17.77;47.26;101462.06;4961229;28;1196;-63
2022/10/24 05:40:33;;;;;;;;;;;;;;;17.45;48.78;101462.94;4960770;28;2550;-61
2022/10/24 05:42:58;;;;;;;;;;;;;;;17.15;49.55;101459.91;4961129;28;1205;-61
2022/10/24 05:45:24;;;;;;;;;;;;;;;17.00;50.06;101466.94;4961056;28;1200;-59
2022/10/24 05:47:49;;;;;;;;;;;;;;;16.89;50.27;101463.25;4960172;28;1169;-61
2022/10/24 05:50:15;;;;;;;;;;;;;;;16.75;50.70;101470.22;4960742;28;1098;-60
2022/10/24 05:52:41;;;;;;;;;;;;;;;16.72;50.95;101482.53;4960442;28;1161;-59
2022/10/24 05:55:06;;;;;;;;;;;;;;;16.64;51.33;101493.97;4959632;28;1910;-61
2022/10/24 05:57:32;;;;;;;;;;;;;;;16.50;51.47;101493.53;4960565;28;1113;-60
2022/10/24 05:59:57;;;;;;;;;;;;;;;16.42;52.04;101500.31;4957407;28;1165;-61
2022/10/24 06:02:23;;;;;;;;;;;;;;;16.35;51.94;101505.13;4949613;28;1149;-63
2022/10/24 06:04:49;;;;;;;;;;;;;;;16.21;52.47;101503.84;4960278;28;1145;-63
2022/10/24 06:07:15;;;;;;;;;;;;;;;16.20;52.55;101499.44;4953949;28;1098;-64
2022/10/24 06:09:40;;;;;;;;;;;;;;;16.10;52.74;101491.06;4952805;28;2574;-62
2022/10/24 06:12:07;;;;;;;;;;;;;;;16.04;52.90;101501.16;4959900;28;1232;-59
2022/10/24 06:14:33;;;;;;;;;;;;;;;16.05;52.64;101500.88;4960131;28;1153;-62
2022/10/24 06:16:58;;;;;;;;;;;;;;;16.82;51.26;101508.47;4959945;28;1975;-64
2022/10/24 06:19:24;;;;;;;;;;;;;;;17.22;50.36;101507.25;4960020;28;1177;-65
2022/10/24 06:21:49;;;;;;;;;;;;;;;16.59;51.93;101496.66;4959905;28;1285;-63
2022/10/24 06:24:14;;;;;;;;;;;;;;;16.44;52.17;101513.78;4959542;28;1106;-64
2022/10/24 06:26:40;;;;;;;;;;;;;;;16.28;52.53;101515.47;4960064;28;1224;-66
2022/10/24 06:29:05;;;;;;;;;;;;;;;16.23;52.85;101518.97;4959687;28;1169;-65
2022/10/24 06:31:31;;;;;;;;;;;;;;;16.10;52.75;101518.50;4959980;28;1545;-64
2022/10/24 06:33:56;;;;;;;;;;;;;;;16.03;53.03;101518.69;4959482;28;1094;-66
2022/10/24 06:36:22;;;;;;;;;;;;;;;16.45;52.37;101525.56;4959561;28;1969;-65
2022/10/24 06:38:47;;;;;;;;;;;;;;;17.62;49.33;101516.97;4959724;28;1176;-63
2022/10/24 06:41:13;;;;;;;;;;;;;;;16.75;51.70;101514.97;4959693;28;2628;-65
2022/10/24 06:43:41;;;;;;;;;;;;;;;16.53;52.11;101516.91;4960022;28;1137;-64
2022/10/24 06:46:07;;;;;;;;;;;;;;;16.35;52.74;101510.63;4945884;28;1181;-65
2022/10/24 06:48:33;;;;;;;;;;;;;;;16.21;52.82;101515.63;4959249;28;959;-65
2022/10/24 06:50:58;;;;;;;;;;;;;;;16.21;53.06;101520.31;4959378;28;1090;-64
2022/10/24 06:53:24;;;;;;;;;;;;;;;17.73;49.15;101502.19;4959473;28;1241;-63
2022/10/24 06:55:49;;;;;;;;;;;;;;;16.99;51.04;101503.72;4959314;28;1971;-64
2022/10/24 06:58:14;;;;;;;;;;;;;;;16.64;51.86;101506.88;4959103;28;1205;-62
2022/10/24 07:00:40;;;;;;;;;;;;;;;16.46;52.22;101499.78;4958878;28;857;-63
2022/10/24 07:03:05;;;;;;;;;;;;;;;16.29;52.81;101505.34;4958961;28;1158;-66
2022/10/24 07:05:31;;;;;;;;;;;;;;;16.20;52.89;101503.03;4957859;28;1110;-65
2022/10/24 07:07:56;;;;;;;;;;;;;;;16.13;52.90;101496.91;4959036;29;1153;-62
2022/10/24 07:10:22;;;;;;;;;;;;;;;16.09;53.25;101503.97;4958490;28;1860;-68
2022/10/24 07:12:47;;;;;;;;;;;;;;;16.18;52.97;101504.34;4958927;28;975;-64
2022/10/24 07:15:13;;;;;;;;;;;;;;;17.71;49.52;101498.88;4959196;28;1902;-64
2022/10/24 07:17:41;;;;;;;;;;;;;;;16.97;51.22;101502.31;4958731;28;1146;-64
2022/10/24 07:20:07;;;;;;;;;;;;;;;16.57;52.12;101510.63;4958762;28;1157;-64
2022/10/24 07:22:32;;;;;;;;;;;;;;;16.42;52.49;101514.03;4958900;28;1181;-66
2022/10/24 07:24:58;;;;;;;;;;;;;;;16.30;52.76;101506.97;4958586;28;957;-64
2022/10/24 07:27:23;;;;;;;;;;;;;;;16.17;53.09;101505.44;4959214;28;1141;-63
2022/10/24 07:29:50;;;;;;;;;;;;;;;16.16;53.06;101512.00;4958841;28;1248;-66
2022/10/24 07:32:16;;;;;;;;;;;;;;;17.36;50.64;101503.00;4958561;28;1146;-63
2022/10/24 07:34:42;;;;;;;;;;;;;;;17.05;51.07;101507.34;4958536;28;1109;-63
2022/10/24 07:37:07;;;;;;;;;;;;;;;16.57;52.18;101513.38;4958510;28;1914;-63
2022/10/24 07:39:32;;;;;;;;;;;;;;;16.40;52.98;101502.47;4948007;28;1936;-62
2022/10/24 07:41:58;;;;;;;;;;;;;;;16.32;53.04;101508.38;4958340;28;1161;-61
2022/10/24 07:44:23;;;;;;;;;;;;;;;16.22;52.97;101500.03;4958593;28;1122;-61
2022/10/24 07:46:49;;;;;;;;;;;;;;;17.65;49.74;101499.09;4958311;28;1149;-64
2022/10/24 07:49:14;;;;;;;;;;;;;;;16.96;51.21;101509.75;4958646;28;1004;-61
2022/10/24 07:51:43;;;;;;;;;;;;;;;16.59;52.26;101504.88;4975541;28;1129;-59
2022/10/24 07:54:08;;;;;;;;;;;;;;;16.45;52.70;101509.09;4958585;28;1128;-60
2022/10/24 07:56:33;;;;;;;;;;;;;;;16.30;52.98;101505.06;4975615;28;1977;-62
2022/10/24 07:59:00;;;;;;;;;;;;;;;16.20;53.13;101502.19;4958565;28;1182;-62
2022/10/24 08:01:26;;;;;;;;;;;;;;;16.16;53.30;101503.75;4958070;28;912;-61
2022/10/24 08:03:51;;;;;;;;;;;;;;;17.01;51.63;101508.97;4951920;28;1204;-61
2022/10/24 08:06:17;;;;;;;;;;;;;;;17.26;50.52;101508.38;4951416;29;1141;-63
2022/10/24 08:08:43;;;;;;;;;;;;;;;16.65;52.13;101492.88;4958215;28;1109;-62
2022/10/24 08:11:13;;;;;;;;;;;;;;;16.43;52.99;101495.63;4958024;28;2543;-63
2022/10/24 08:13:38;;;;;;;;;;;;;;;16.35;52.87;101493.34;4957575;28;1525;-62
2022/10/24 08:16:07;;;;;;;;;;;;;;;16.24;53.29;101497.84;4958104;28;1911;-62
2022/10/24 08:18:33;;;;;;;;;;;;;;;17.67;49.80;101488.66;4957475;28;1110;-62
2022/10/24 08:20:59;;;;;;;;;;;;;;;16.98;51.50;101479.25;4958068;28;1157;-61
2022/10/24 08:23:24;;;;;;;;;;;;;;;16.64;52.28;101485.72;4958083;28;1189;-63
2022/10/24 08:25:49;;;;;;;;;;;;;;;16.46;52.68;101481.41;4957967;28;963;-58
2022/10/24 08:28:15;;;;;;;;;;;;;;;16.36;53.13;101484.84;4944298;28;1185;-59
2022/10/24 08:30:40;;;;;;;;;;;;;;;16.29;53.17;101483.38;4957861;28;1121;-58
2022/10/24 08:33:06;;;;;;;;;;;;;;;16.20;53.34;101467.34;4958739;28;1146;-58
2022/10/24 08:35:31;;;;;;;;;;;;;;;16.74;52.17;101471.28;4957891;28;1970;-58
2022/10/24 08:37:57;;;;;;;;;;;;;;;17.50;50.28;101464.06;4957516;28;1444;-60
2022/10/24 08:40:23;;;;;;;;;;;;;;;16.77;52.26;101468.88;4958301;28;2580;-57
2022/10/24 08:42:48;;;;;;;;;;;;;;;16.52;52.78;101471.31;4958129;28;1157;-61
2022/10/24 08:45:16;;;;;;;;;;;;;;;16.38;53.19;101474.44;4957729;28;1129;-60
2022/10/24 08:47:43;;;;;;;;;;;;;;;16.34;53.13;101465.06;4957638;28;1177;-62
2022/10/24 08:50:18;;;;;;;;;;;;;;;16.25;53.30;101463.84;4956669;29;1138;-62
2022/10/24 08:52:45;;;;;;;;;;;;;;;16.15;53.67;101463.72;4957771;28;1184;-62
2022/10/24 08:55:12;;;;;;;;;;;;;;;16.10;53.63;101463.63;4975195;28;1906;-63
2022/10/24 08:57:38;;;;;;;;;;;;;;;17.14;51.45;101461.00;4957561;28;1133;-64
2022/10/24 09:00:07;;;;;;;;;;;;;;;17.30;50.56;101465.53;4957460;28;1162;-62
2022/10/24 09:02:34;;;;;;;;;;;;;;;16.72;52.29;101459.75;4957770;28;1161;-61
2022/10/24 09:05:29;;;;;;;;;;;;;;;16.52;52.79;101465.81;4975988;28;1214;-62
2022/10/24 09:07:55;;;;;;;;;;;;;;;16.39;53.04;101472.53;4955424;28;1539;-63
2022/10/24 09:10:34;;;;;;;;;;;;;;;16.27;53.48;101469.06;4975132;28;2444;-63
2022/10/24 09:12:59;;;;;;;;;;;;;;;16.20;53.48;101461.03;4956122;29;1019;-63
2022/10/24 09:15:28;;;;;;;;;;;;;;;16.14;53.56;101459.31;4956526;28;1949;-63
2022/10/24 09:17:55;;;;;;;;;;;;;;;16.06;53.87;101463.28;4976375;28;1476;-63
2022/10/24 09:20:23;;;;;;;;;;;;;;;17.37;51.08;101444.16;4975460;28;1120;-58
2022/10/24 09:22:48;;;;;;;;;;;;;;;17.19;51.39;101447.31;4951315;29;1231;-60
2022/10/24 09:25:14;;;;;;;;;;;;;;;16.72;52.33;101443.25;4948900;29;1165;-59
2022/10/24 09:27:40;;;;;;;;;;;;;;;16.55;53.14;101448.81;4956819;28;2497;-61
2022/10/24 09:30:06;;;;;;;;;;;;;;;16.42;53.08;101445.41;4959125;28;1243;-62
2022/10/24 09:32:32;;;;;;;;;;;;;;;16.31;53.27;101449.09;4961530;28;1177;-58
2022/10/24 09:35:02;;;;;;;;;;;;;;;16.19;53.60;101430.00;4960938;28;1906;-59
2022/10/24 09:37:33;;;;;;;;;;;;;;;16.20;53.42;101433.56;4953961;28;1278;-58
2022/10/24 09:40:08;;;;;;;;;;;;;;;17.22;51.61;101424.78;4954447;28;1169;-59
2022/10/24 09:42:33;;;;;;;;;;;;;;;17.17;51.35;101430.28;4955084;29;1050;-59
2022/10/24 09:45:00;;;;;;;;;;;;;;;16.73;52.71;101431.16;4985787;28;1152;-58
2022/10/24 09:47:26;;;;;;;;;;;;;;;16.56;52.87;101429.38;4953527;28;1118;-59
2022/10/24 09:49:52;;;;;;;;;;;;;;;16.38;53.53;101421.44;4960219;28;1192;-58
2022/10/24 09:52:18;;;;;;;;;;;;;;;16.31;53.40;101416.16;4959783;29;1269;-58
2022/10/24 09:54:45;;;;;;;;;;;;;;;16.28;53.51;101410.38;4978185;28;1227;-58
2022/10/24 09:57:10;;;;;;;;;;;;;;;16.20;53.64;101408.88;4960190;28;1903;-59
2022/10/24 09:59:45;;;;;;;;;;;;;;;17.15;51.64;101404.94;4958862;28;2502;-58
2022/10/24 10:02:26;;;;;;;;;;;;;;;17.01;52.00;101407.31;4956567;28;1860;-59
2022/10/24 10:05:12;;;;;;;;;;;;;;;16.63;53.15;101401.69;4959845;28;2139;-59
2022/10/24 10:07:38;;;;;;;;;;;;;;;16.46;53.51;101409.19;4959617;28;2384;-59
2022/10/24 10:10:08;;;;;;;;;;;;;;;16.35;53.77;101397.28;4960429;28;2085;-58
2022/10/24 10:12:37;;;;;;;;;;;;;;;16.29;53.95;101401.88;4958327;29;1861;-59
2022/10/24 10:15:15;;;;;;;;;;;;;;;16.17;53.90;101382.81;4959856;28;2208;-59
2022/10/24 10:17:47;;;;;;;;;;;;;;;17.38;51.37;101393.59;4959665;28;1133;-61
2022/10/24 10:20:21;;;;;;;;;;;;;;;17.05;51.92;101387.28;4960351;28;1125;-59
2022/10/24 10:22:47;;;;;;;;;;;;;;;16.65;53.07;101390.44;4958651;29;1074;-59
2022/10/24 10:25:26;;;;;;;;;;;;;;;16.46;53.69;101384.50;4959587;28;1252;-59
2022/10/24 10:27:51;;;;;;;;;;;;;;;16.34;54.01;101385.47;4960445;28;1114;-59
2022/10/24 10:30:18;;;;;;;;;;;;;;;16.64;53.24;101380.56;4954805;28;1157;-60
2022/10/24 10:32:53;;;;;;;;;;;;;;;17.69;50.55;101380.03;4940786;28;1157;-62
2022/10/24 10:35:19;;;;;;;;;;;;;;;16.89;52.77;101377.25;4958109;29;1906;-62
2022/10/24 10:37:50;;;;;;;;;;;;;;;16.67;53.40;101386.34;4990929;28;885;-59
2022/10/24 10:40:19;;;;;;;;;;;;;;;16.54;53.50;101386.78;4945704;28;1145;-60
2022/10/24 10:42:47;;;;;;;;;;;;;;;16.41;53.87;101388.84;4958349;29;1216;-61
2022/10/24 10:45:32;;;;;;;;;;;;;;;16.37;53.81;101382.22;4959392;28;2403;-60
2022/10/24 10:48:05;;;;;;;;;;;;;;;16.27;54.19;101384.00;4959339;28;1129;-60
2022/10/24 10:50:36;;;;;;;;;;;;;;;17.62;51.08;101369.28;4956215;28;1137;-61
2022/10/24 10:53:20;;;;;;;;;;;;;;;16.86;52.95;101370.34;4950301;29;1181;-61
2022/10/24 10:55:51;;;;;;;;;;;;;;;16.60;53.58;101364.59;4976573;28;1902;-59
2022/10/24 10:58:16;;;;;;;;;;;;;;;16.39;54.17;101357.25;4979093;28;1196;-59
2022/10/24 11:00:47;;;;;;;;;;;;;;;16.36;54.33;101364.06;4956553;29;1174;-59
2022/10/24 11:03:30;;;;;;;;;;;;;;;16.30;54.26;101362.38;4949959;28;1157;-62
2022/10/24 11:06:04;;;;;;;;;;;;;;;16.18;54.32;101357.00;4957974;29;1145;-61
2022/10/24 11:08:30;;;;;;;;;;;;;;;16.12;54.52;101357.19;4978807;28;1211;-58
2022/10/24 11:11:00;;;;;;;;;;;;;;;16.20;54.62;101351.25;4956901;29;1217;-58
2022/10/24 11:13:26;;;;;;;;;;;;;;;17.54;51.54;101353.28;4953002;29;1141;-60
2022/10/24 11:15:53;;;;;;;;;;;;;;;16.72;53.42;101345.22;4957592;29;2256;-59
2022/10/24 11:18:25;;;;;;;;;;;;;;;16.47;54.42;101355.97;4949203;28;1145;-59
2022/10/24 11:20:56;;;;;;;;;;;;;;;16.35;54.51;101345.13;4955578;29;1145;-61
2022/10/24 11:23:23;;;;;;;;;;;;;;;16.29;54.47;101346.97;4958750;28;1117;-61
2022/10/24 11:25:53;;;;;;;;;;;;;;;16.19;54.71;101341.38;4958347;28;1228;-59
2022/10/24 11:28:19;;;;;;;;;;;;;;;16.10;54.63;101351.16;4958980;28;1121;-58
2022/10/24 11:30:55;;;;;;;;;;;;;;;16.04;54.60;101344.78;4944973;28;1141;-58
2022/10/24 11:33:22;;;;;;;;;;;;;;;17.35;52.46;101343.78;4977599;28;1198;-58
2022/10/24 11:36:10;;;;;;;;;;;;;;;17.18;52.53;101341.22;4958509;28;1906;-58
2022/10/24 11:38:39;;;;;;;;;;;;;;;16.62;54.06;101334.16;4949757;28;1266;-58
2022/10/24 11:41:21;;;;;;;;;;;;;;;16.47;54.20;101331.25;4976161;28;1138;-60
2022/10/24 11:43:46;;;;;;;;;;;;;;;16.32;54.83;101334.66;4958085;28;1085;-59
2022/10/24 11:46:19;;;;;;;;;;;;;;;16.24;54.81;101330.44;4957158;29;2460;-59
2022/10/24 11:48:54;;;;;;;;;;;;;;;16.15;54.79;101323.78;4989404;28;1076;-59
2022/10/24 11:51:45;;;;;;;;;;;;;;;17.07;53.16;101324.66;4944884;28;1006;-59
2022/10/24 11:54:13;;;;;;;;;;;;;;;17.12;52.83;101326.59;4957057;28;1254;-59
2022/10/24 11:56:41;;;;;;;;;;;;;;;16.69;54.19;101322.94;4957855;28;1965;-59
2022/10/24 11:59:11;;;;;;;;;;;;;;;16.52;54.45;101328.53;4958160;28;1145;-58
2022/10/24 12:01:55;;;;;;;;;;;;;;;16.40;54.46;101324.03;4957360;29;1110;-59
2022/10/24 12:04:39;;;;;;;;;;;;;;;16.28;54.82;101322.53;4947882;28;1173;-59
2022/10/24 12:07:14;;;;;;;;;;;;;;;17.26;52.98;101321.47;4957415;29;1133;-59
2022/10/24 12:09:53;;;;;;;;;;;;;;;17.05;53.43;101315.84;4958055;28;1089;-59
2022/10/24 12:12:37;;;;;;;;;;;;;;;16.67;54.49;101308.66;4953702;29;1094;-59
2022/10/24 12:15:06;;;;;;;;;;;;;;;16.46;54.59;101318.63;4957585;28;2437;-59
2022/10/24 12:17:40;;;;;;;;;;;;;;;16.37;55.06;101319.09;4957745;28;1033;-58
2022/10/24 12:20:06;;;;;;;;;;;;;;;16.28;55.19;101312.38;4979204;28;1191;-58
2022/10/24 12:22:36;;;;;;;;;;;;;;;16.18;55.24;101304.06;4971814;28;1384;-58
2022/10/24 12:25:16;;;;;;;;;;;;;;;16.88;54.12;101298.66;4980693;28;1153;-58
2022/10/24 12:27:42;;;;;;;;;;;;;;;17.39;52.80;101304.53;4957372;29;1022;-58
2022/10/24 12:30:07;;;;;;;;;;;;;;;16.76;54.44;101302.41;4980264;28;1125;-58
2022/10/24 12:32:39;;;;;;;;;;;;;;;16.52;54.73;101295.59;4952853;29;1090;-57
2022/10/24 12:35:24;;;;;;;;;;;;;;;16.42;55.04;101307.31;4957721;29;1911;-57
2022/10/24 12:37:50;;;;;;;;;;;;;;;16.30;55.25;101304.75;4957709;28;1254;-58
2022/10/24 12:40:34;;;;;;;;;;;;;;;16.24;55.30;101309.34;4950258;28;1094;-58
2022/10/24 12:42:59;;;;;;;;;;;;;;;16.14;55.51;101308.41;4941343;29;1268;-58
2022/10/24 12:45:28;;;;;;;;;;;;;;;16.11;55.32;101306.19;4955783;28;1795;-58
2022/10/24 12:47:54;;;;;;;;;;;;;;;16.50;55.16;101295.03;4956594;29;1094;-59
2022/10/24 12:50:22;;;;;;;;;;;;;;;17.55;52.83;101286.19;4958212;28;1153;-58
2022/10/24 12:53:06;;;;;;;;;;;;;;;16.78;54.50;101293.91;4957619;28;1165;-59